createdAt,value
2019-05-03T00:01:08.902Z,9.00
2019-05-03T00:03:38.363Z,8.90
2019-05-03T00:06:07.717Z,8.90
2019-05-03T00:08:38.071Z,8.90
2019-05-03T00:11:07.450Z,8.90
2019-05-03T00:13:37.079Z,8.90
2019-05-03T00:16:21.825Z,8.80
2019-05-03T00:18:52.704Z,8.80
2019-05-03T00:21:22.177Z,8.80
2019-05-03T00:23:52.304Z,8.80
2019-05-03T00:26:22.570Z,8.80
2019-05-03T00:28:52.154Z,8.80
2019-05-03T00:31:22.606Z,8.80
2019-05-03T00:33:53.710Z,8.80
2019-05-03T00:36:27.540Z,8.70
2019-05-03T00:38:58.451Z,8.70
2019-05-03T00:41:27.801Z,8.70
2019-05-03T00:43:57.070Z,8.60
2019-05-03T00:46:26.322Z,8.60
2019-05-03T00:48:55.565Z,8.60
2019-05-03T00:51:24.904Z,8.60
2019-05-03T00:53:54.224Z,8.60
2019-05-03T00:56:23.457Z,8.60
2019-05-03T00:58:54.485Z,8.60
2019-05-03T01:01:23.789Z,8.60
2019-05-03T01:03:53.067Z,8.60
2019-05-03T01:06:22.471Z,8.60
2019-05-03T01:08:52.368Z,8.60
2019-05-03T01:11:22.275Z,8.60
2019-05-03T01:13:53.035Z,8.60
2019-05-03T01:16:24.182Z,8.60
2019-05-03T01:18:53.723Z,8.60
2019-05-03T01:21:23.093Z,8.60
2019-05-03T01:23:52.760Z,8.60
2019-05-03T01:26:22.774Z,8.60
2019-05-03T01:28:52.386Z,8.60
2019-05-03T01:31:22.866Z,8.60
2019-05-03T01:33:52.406Z,8.60
2019-05-03T01:36:22.839Z,8.60
2019-05-03T01:38:52.864Z,8.60
2019-05-03T01:41:23.750Z,8.70
2019-05-03T01:43:53.001Z,8.70
2019-05-03T01:46:22.768Z,8.70
2019-05-03T01:49:03.139Z,8.70
2019-05-03T01:51:34.045Z,8.70
2019-05-03T01:54:03.735Z,8.70
2019-05-03T01:56:32.994Z,8.70
2019-05-03T01:59:02.290Z,8.70
2019-05-03T02:01:36.231Z,8.60
2019-05-03T02:04:12.937Z,8.70
2019-05-03T02:06:42.559Z,8.70
2019-05-03T02:09:12.276Z,8.70
2019-05-03T02:11:42.254Z,8.70
2019-05-03T02:14:12.420Z,8.70
2019-05-03T02:16:42.078Z,8.70
2019-05-03T02:19:12.641Z,8.70
2019-05-03T02:21:42.105Z,8.70
2019-05-03T02:24:11.921Z,8.70
2019-05-03T02:26:42.494Z,8.70
2019-05-03T02:29:12.614Z,8.70
2019-05-03T02:31:43.630Z,8.70
2019-05-03T02:34:13.134Z,8.70
2019-05-03T02:36:42.976Z,8.70
2019-05-03T02:39:14.146Z,8.80
2019-05-03T02:41:47.848Z,8.80
2019-05-03T02:44:16.512Z,8.80
2019-05-03T02:46:59.648Z,8.80
2019-05-03T02:49:35.294Z,8.80
2019-05-03T02:52:06.659Z,8.80
2019-05-03T02:54:35.327Z,8.80
2019-05-03T02:57:06.305Z,8.90
2019-05-03T02:59:35.818Z,8.90
2019-05-03T03:02:06.274Z,8.80
2019-05-03T03:04:35.903Z,8.80
2019-05-03T03:07:05.848Z,8.80
2019-05-03T03:09:36.058Z,8.90
2019-05-03T03:12:06.067Z,8.80
2019-05-03T03:14:36.371Z,8.80
2019-05-03T03:17:06.669Z,8.80
2019-05-03T03:19:36.293Z,8.90
2019-05-03T03:22:07.469Z,8.90
2019-05-03T03:24:37.190Z,8.90
2019-05-03T03:27:06.742Z,8.90
2019-05-03T03:29:37.187Z,8.90
2019-05-03T03:32:11.326Z,9.00
2019-05-03T03:35:42.809Z,9.00
2019-05-03T03:38:15.490Z,9.00
2019-05-03T03:40:45.349Z,9.00
2019-05-03T03:43:15.731Z,9.00
2019-05-03T03:45:45.620Z,9.00
2019-05-03T03:48:15.909Z,9.00
2019-05-03T03:50:45.702Z,8.90
2019-05-03T03:53:17.098Z,9.00
2019-05-03T03:55:47.605Z,9.00
2019-05-03T03:58:22.371Z,8.90
2019-05-03T04:00:48.643Z,9.00
2019-05-03T04:03:18.041Z,9.00
2019-05-03T04:05:47.417Z,9.00
2019-05-03T04:08:16.731Z,9.00
2019-05-03T04:10:46.496Z,9.00
2019-05-03T04:13:17.030Z,9.00
2019-05-03T04:15:48.042Z,9.00
2019-05-03T04:18:22.218Z,9.00
2019-05-03T04:20:51.611Z,9.00
2019-05-03T04:23:21.214Z,9.00
2019-05-03T04:29:26.591Z,9.00
2019-05-03T04:31:56.587Z,9.00
2019-05-03T04:34:26.417Z,8.90
2019-05-03T04:36:56.027Z,8.90
2019-05-03T04:39:25.692Z,8.90
2019-05-03T04:41:56.033Z,8.90
2019-05-03T04:44:26.076Z,9.00
2019-05-03T04:46:58.268Z,9.00
2019-05-03T04:49:26.465Z,9.00
2019-05-03T04:51:56.086Z,9.00
2019-05-03T04:54:37.459Z,9.00
2019-05-03T04:57:06.956Z,8.90
2019-05-03T04:59:36.404Z,9.00
2019-05-03T05:02:06.269Z,9.00
2019-05-03T05:04:35.941Z,9.00
2019-05-03T05:07:06.731Z,9.10
2019-05-03T05:09:36.096Z,9.10
2019-05-03T05:12:05.901Z,9.10
2019-05-03T05:14:35.536Z,9.20
2019-05-03T05:17:06.264Z,9.30
2019-05-03T05:19:41.169Z,9.40
2019-05-03T05:22:15.378Z,9.40
2019-05-03T05:24:44.962Z,9.40
2019-05-03T05:27:16.278Z,9.40
2019-05-03T05:29:45.554Z,9.40
2019-05-03T05:32:14.818Z,9.40
2019-05-03T05:34:45.926Z,9.40
2019-05-03T05:37:15.149Z,9.40
2019-05-03T05:39:44.799Z,9.40
2019-05-03T05:42:14.916Z,9.40
2019-05-03T05:44:45.415Z,9.30
2019-05-03T05:47:20.027Z,9.30
2019-05-03T05:49:50.946Z,9.30
2019-05-03T05:52:20.222Z,9.30
2019-05-03T05:54:55.320Z,9.30
2019-05-03T05:57:30.484Z,9.30
2019-05-03T06:09:36.983Z,9.40
2019-05-03T06:12:14.894Z,9.40
2019-05-03T06:14:48.945Z,9.40
2019-05-03T06:17:28.818Z,9.40
2019-05-03T06:20:00.098Z,9.40
2019-05-03T06:22:31.125Z,9.30
2019-05-03T06:25:02.499Z,9.30
2019-05-03T06:27:36.304Z,9.30
2019-05-03T06:30:10.474Z,9.30
2019-05-03T06:32:41.466Z,9.30
2019-05-03T06:35:11.175Z,9.40
2019-05-03T06:37:45.842Z,9.40
2019-05-03T06:40:15.417Z,9.40
2019-05-03T06:42:52.333Z,9.40
2019-05-03T06:45:16.063Z,9.40
2019-05-03T06:47:49.787Z,9.50
2019-05-03T06:50:19.636Z,9.60
2019-05-03T06:52:47.489Z,9.60
2019-05-03T06:55:18.288Z,9.60
2019-05-03T06:57:49.679Z,9.70
2019-05-03T07:00:34.949Z,9.70
2019-05-03T07:03:15.182Z,9.80
2019-05-03T07:08:49.047Z,9.90
2019-05-03T07:11:18.309Z,10.00
2019-05-03T07:13:55.018Z,10.00
2019-05-03T07:16:25.384Z,10.10
2019-05-03T07:18:58.123Z,10.20
2019-05-03T07:21:25.817Z,10.30
2019-05-03T07:23:55.261Z,10.40
2019-05-03T07:26:25.378Z,10.40
2019-05-03T07:28:54.953Z,10.50
2019-05-03T07:38:11.778Z,10.10
2019-05-03T07:40:41.478Z,10.00
2019-05-03T07:43:10.847Z,10.10
2019-05-03T07:45:40.353Z,10.10
2019-05-03T07:48:09.815Z,10.00
2019-05-03T07:50:39.639Z,10.10
2019-05-03T07:53:08.966Z,10.00
2019-05-03T07:55:52.221Z,10.00
2019-05-03T07:58:29.009Z,10.00
2019-05-03T08:01:06.295Z,10.10
2019-05-03T08:03:32.077Z,10.30
2019-05-03T08:06:01.329Z,10.40
2019-05-03T08:08:30.798Z,10.40
2019-05-03T08:11:00.448Z,10.40
2019-05-03T08:13:29.862Z,10.40
2019-05-03T08:15:59.153Z,10.50
2019-05-03T08:18:28.522Z,10.70
2019-05-03T08:20:57.817Z,10.90
2019-05-03T08:23:30.364Z,10.90
2019-05-03T08:25:58.938Z,11.00
2019-05-03T08:28:28.539Z,11.10
2019-05-03T08:31:15.772Z,11.10
2019-05-03T08:33:49.386Z,11.10
2019-05-03T08:36:18.753Z,11.00
2019-05-03T08:38:48.002Z,10.90
2019-05-03T08:41:24.926Z,10.90
2019-05-03T08:43:54.993Z,10.80
2019-05-03T08:46:25.368Z,10.90
2019-05-03T08:48:54.945Z,10.90
2019-05-03T08:51:25.112Z,11.00
2019-05-03T08:53:55.983Z,11.10
2019-05-03T08:56:25.461Z,11.20
2019-05-03T08:58:55.518Z,11.30
2019-05-03T09:01:25.290Z,11.40
2019-05-03T09:03:55.769Z,11.40
2019-05-03T09:06:25.426Z,11.40
2019-05-03T09:08:57.253Z,11.40
2019-05-03T09:11:33.590Z,11.40
2019-05-03T09:14:00.722Z,11.40
2019-05-03T09:16:30.434Z,11.40
2019-05-03T09:18:59.759Z,11.40
2019-05-03T09:21:29.057Z,11.40
2019-05-03T09:23:58.756Z,11.30
2019-05-03T09:26:29.519Z,11.30
2019-05-03T09:28:58.958Z,11.20
2019-05-03T09:31:29.728Z,11.20
2019-05-03T09:34:00.675Z,11.10
2019-05-03T09:36:29.998Z,11.00
2019-05-03T09:38:59.391Z,10.90
2019-05-03T09:41:29.119Z,10.90
2019-05-03T09:43:58.474Z,10.70
2019-05-03T09:46:27.754Z,10.70
2019-05-03T09:49:10.254Z,10.50
2019-05-03T09:51:28.902Z,10.30
2019-05-03T09:54:15.998Z,10.00
2019-05-03T09:56:58.737Z,9.60
2019-05-03T09:59:28.723Z,9.30
2019-05-03T10:01:58.673Z,9.00
2019-05-03T10:04:27.955Z,8.80
2019-05-03T10:06:57.223Z,8.80
2019-05-03T10:09:27.277Z,8.80
2019-05-03T10:11:56.663Z,8.80
2019-05-03T10:14:25.913Z,8.90
2019-05-03T10:17:17.009Z,9.00
2019-05-03T10:19:48.745Z,9.20
2019-05-03T10:22:21.151Z,9.40
2019-05-03T10:24:50.425Z,9.40
2019-05-03T10:27:19.713Z,9.50
2019-05-03T10:29:49.113Z,9.50
2019-05-03T10:32:32.442Z,9.70
2019-05-03T10:35:06.399Z,9.70
2019-05-03T10:37:36.027Z,9.80
2019-05-03T10:40:08.108Z,9.70
2019-05-03T10:42:38.801Z,9.60
2019-05-03T10:45:08.306Z,9.60
2019-05-03T10:47:37.804Z,9.50
2019-05-03T10:50:09.169Z,9.50
2019-05-03T10:52:44.909Z,9.50
2019-05-03T10:55:15.964Z,9.70
2019-05-03T10:57:49.553Z,9.70
2019-05-03T11:00:44.289Z,9.70
2019-05-03T11:02:56.277Z,9.80
2019-05-03T11:05:25.565Z,9.90
2019-05-03T11:07:55.615Z,9.90
2019-05-03T11:10:25.360Z,10.00
2019-05-03T11:12:56.080Z,10.00
2019-05-03T11:15:25.870Z,10.10
2019-05-03T11:17:55.582Z,10.10
2019-05-03T11:20:32.083Z,10.20
2019-05-03T11:23:02.507Z,10.30
2019-05-03T11:25:31.867Z,10.60
2019-05-03T11:28:04.760Z,10.80
2019-05-03T11:30:35.643Z,11.00
2019-05-03T11:33:15.242Z,11.10
2019-05-03T11:35:49.391Z,11.20
2019-05-03T11:38:34.800Z,11.50
2019-05-03T11:41:04.901Z,11.60
2019-05-03T11:43:35.019Z,11.60
2019-05-03T11:46:04.398Z,11.50
2019-05-03T11:48:34.889Z,11.40
2019-05-03T11:51:04.895Z,11.20
2019-05-03T11:53:35.613Z,11.10
2019-05-03T11:56:06.211Z,10.90
2019-05-03T11:58:35.478Z,10.70
2019-05-03T12:01:15.343Z,10.60
2019-05-03T12:03:41.637Z,10.50
2019-05-03T12:06:10.918Z,10.40
2019-05-03T12:08:40.562Z,10.40
2019-05-03T12:11:09.918Z,10.40
2019-05-03T12:13:39.322Z,10.30
2019-05-03T12:16:18.067Z,10.30
2019-05-03T12:18:51.970Z,10.20
2019-05-03T12:21:11.723Z,10.20
2019-05-03T12:23:42.267Z,10.10
2019-05-03T12:26:13.685Z,10.10
2019-05-03T12:28:44.817Z,10.20
2019-05-03T12:31:38.028Z,10.20
2019-05-03T12:34:06.178Z,10.20
2019-05-03T12:36:38.936Z,10.20
2019-05-03T12:39:22.867Z,10.20
2019-05-03T12:41:37.917Z,10.20
2019-05-03T12:44:07.174Z,10.20
2019-05-03T12:46:36.568Z,10.30
2019-05-03T12:49:05.958Z,10.30
2019-05-03T12:51:35.565Z,10.40
2019-05-03T12:54:05.007Z,10.40
2019-05-03T12:56:35.812Z,10.40
2019-05-03T12:59:07.016Z,10.40
2019-05-03T13:01:42.207Z,10.30
2019-05-03T13:04:15.157Z,10.30
2019-05-03T13:06:51.480Z,10.20
2019-05-03T13:09:20.113Z,10.20
2019-05-03T13:11:54.775Z,10.20
2019-05-03T13:14:22.055Z,10.40
2019-05-03T13:16:52.417Z,10.70
2019-05-03T13:19:21.806Z,11.10
2019-05-03T13:21:51.998Z,11.30
2019-05-03T13:24:23.378Z,11.40
2019-05-03T13:26:52.399Z,11.50
2019-05-03T13:29:21.801Z,11.60
2019-05-03T13:31:59.199Z,11.80
2019-05-03T13:34:22.307Z,12.00
2019-05-03T13:36:51.718Z,12.10
2019-05-03T13:39:21.131Z,12.20
2019-05-03T13:41:50.491Z,12.10
2019-05-03T13:44:19.954Z,12.10
2019-05-03T13:46:50.378Z,12.00
2019-05-03T13:49:19.771Z,11.90
2019-05-03T13:51:49.049Z,11.90
2019-05-03T13:54:18.507Z,11.80
2019-05-03T13:56:47.834Z,11.70
2019-05-03T13:59:21.379Z,11.80
2019-05-03T14:01:48.082Z,11.70
2019-05-03T14:04:17.437Z,11.60
2019-05-03T14:06:47.097Z,11.70
2019-05-03T14:09:16.657Z,11.60
2019-05-03T14:11:46.119Z,11.60
2019-05-03T14:14:15.830Z,11.60
2019-05-03T14:16:45.313Z,11.60
2019-05-03T14:19:19.057Z,11.70
2019-05-03T14:21:59.612Z,11.70
2019-05-03T14:24:29.026Z,11.60
2019-05-03T14:26:59.278Z,11.50
2019-05-03T14:29:28.650Z,11.30
2019-05-03T14:31:58.075Z,11.20
2019-05-03T14:34:27.508Z,11.10
2019-05-03T14:36:56.791Z,11.00
2019-05-03T14:39:26.046Z,11.00
2019-05-03T14:41:55.624Z,11.10
2019-05-03T14:44:25.310Z,11.00
2019-05-03T14:46:58.794Z,11.00
2019-05-03T14:49:26.421Z,10.90
2019-05-03T14:51:56.699Z,10.90
2019-05-03T14:54:28.647Z,10.80
2019-05-03T14:57:08.517Z,10.70
2019-05-03T14:59:55.913Z,10.70
2019-05-03T15:02:40.907Z,10.60
2019-05-03T15:05:07.273Z,10.50
2019-05-03T15:07:36.679Z,10.40
2019-05-03T15:10:06.833Z,10.40
2019-05-03T15:12:36.170Z,10.40
2019-05-03T15:15:07.504Z,10.30
2019-05-03T15:17:37.004Z,10.30
2019-05-03T15:20:06.806Z,10.20
2019-05-03T15:22:36.272Z,10.30
2019-05-03T15:25:06.388Z,10.20
2019-05-03T15:27:35.698Z,10.30
2019-05-03T15:30:06.986Z,10.30
2019-05-03T15:32:36.709Z,10.30
2019-05-03T15:35:06.828Z,10.30
2019-05-03T15:37:37.085Z,10.40
2019-05-03T15:40:07.185Z,10.40
2019-05-03T15:42:38.173Z,10.40
2019-05-03T15:45:09.641Z,10.40
2019-05-03T15:47:43.615Z,10.40
2019-05-03T15:50:12.881Z,10.40
2019-05-03T15:52:44.381Z,10.40
2019-05-03T15:55:15.130Z,10.50
2019-05-03T15:57:44.774Z,10.50
2019-05-03T16:00:16.691Z,10.50
2019-05-03T16:02:46.021Z,10.50
2019-05-03T16:05:15.688Z,10.50
2019-05-03T16:07:45.151Z,10.50
2019-05-03T16:10:15.512Z,10.50
2019-05-03T16:12:45.038Z,10.60
2019-05-03T16:15:14.513Z,10.60
2019-05-03T16:17:44.931Z,10.60
2019-05-03T16:20:14.727Z,10.60
2019-05-03T16:22:45.007Z,10.50
2019-05-03T16:25:15.799Z,10.50
2019-05-03T16:27:47.304Z,10.50
2019-05-03T16:30:30.486Z,10.50
2019-05-03T16:33:01.462Z,10.50
2019-05-03T16:35:30.911Z,10.50
2019-05-03T16:38:00.389Z,10.50
2019-05-03T16:40:29.630Z,10.50
2019-05-03T16:42:59.272Z,10.60
2019-05-03T16:45:28.821Z,10.50
2019-05-03T16:47:58.214Z,10.50
2019-05-03T16:50:29.098Z,10.50
2019-05-03T16:52:58.385Z,10.50
2019-05-03T16:55:27.966Z,10.50
2019-05-03T16:57:57.310Z,10.50
2019-05-03T17:00:27.338Z,10.50
2019-05-03T17:02:57.026Z,10.50
2019-05-03T17:05:34.442Z,10.50
2019-05-03T17:08:17.696Z,10.50
2019-05-03T17:10:52.107Z,10.50
2019-05-03T17:13:21.469Z,10.50
2019-05-03T17:15:51.128Z,10.40
2019-05-03T17:18:20.457Z,10.50
2019-05-03T17:20:50.822Z,10.50
2019-05-03T17:23:20.155Z,10.50
2019-05-03T17:25:49.798Z,10.60
2019-05-03T17:28:19.470Z,10.50
2019-05-03T17:30:48.910Z,10.60
2019-05-03T17:33:18.291Z,10.50
2019-05-03T17:35:47.995Z,10.50
2019-05-03T17:38:17.562Z,10.50
2019-05-03T17:41:06.890Z,10.40
2019-05-03T17:43:45.236Z,10.40
2019-05-03T17:46:14.985Z,10.50
2019-05-03T17:48:45.279Z,10.50
2019-05-03T17:51:19.442Z,10.50
2019-05-03T17:53:56.163Z,10.50
2019-05-03T17:56:29.921Z,10.40
2019-05-03T17:59:00.917Z,10.40
2019-05-03T18:01:31.885Z,10.40
2019-05-03T18:04:09.734Z,10.50
2019-05-03T18:06:40.822Z,10.40
2019-05-03T18:09:20.676Z,10.50
2019-05-03T18:11:54.894Z,10.50
2019-05-03T18:14:25.096Z,10.50
2019-05-03T18:16:54.884Z,10.50
2019-05-03T18:19:24.470Z,10.50
2019-05-03T18:21:55.325Z,10.50
2019-05-03T18:24:24.874Z,10.50
2019-05-03T18:26:54.460Z,10.50
2019-05-03T18:29:25.241Z,10.40
2019-05-03T18:31:55.032Z,10.40
2019-05-03T18:34:25.032Z,10.30
2019-05-03T18:36:54.373Z,10.30
2019-05-03T18:39:25.242Z,10.30
2019-05-03T18:41:55.061Z,10.20
2019-05-03T18:44:34.748Z,10.20
2019-05-03T18:47:05.639Z,10.20
2019-05-03T18:49:35.370Z,10.20
2019-05-03T18:52:04.990Z,10.20
2019-05-03T18:54:35.042Z,10.20
2019-05-03T18:57:05.078Z,10.20
2019-05-03T18:59:34.620Z,10.20
2019-05-03T19:02:05.441Z,10.20
2019-05-03T19:04:39.005Z,10.20
2019-05-03T19:07:09.933Z,10.10
2019-05-03T19:09:40.873Z,10.10
2019-05-03T19:12:28.414Z,10.10
2019-05-03T19:14:57.896Z,10.10
2019-05-03T19:17:29.094Z,10.10
2019-05-03T19:20:00.469Z,10.10
2019-05-03T19:22:29.753Z,10.20
2019-05-03T19:24:59.077Z,10.20
2019-05-03T19:27:28.479Z,10.20
2019-05-03T19:29:57.781Z,10.20
2019-05-03T19:32:28.365Z,10.20
2019-05-03T19:34:58.194Z,10.20
2019-05-03T19:37:27.482Z,10.10
2019-05-03T19:39:57.144Z,10.10
2019-05-03T19:42:27.333Z,10.00
2019-05-03T19:44:56.765Z,10.00
2019-05-03T19:47:26.579Z,10.00
2019-05-03T19:49:56.021Z,9.90
2019-05-03T19:52:27.341Z,9.90
2019-05-03T19:54:56.594Z,9.90
2019-05-03T19:57:30.302Z,9.90
2019-05-03T19:59:59.675Z,10.00
2019-05-03T20:02:30.600Z,9.90
2019-05-03T20:05:16.527Z,9.90
2019-05-03T20:07:47.535Z,10.00
2019-05-03T20:10:18.178Z,10.00
2019-05-03T20:12:47.841Z,9.90
2019-05-03T20:15:17.389Z,9.90
2019-05-03T20:17:56.569Z,9.90
2019-05-03T20:20:17.625Z,9.90
2019-05-03T20:22:47.675Z,9.90
2019-05-03T20:25:17.275Z,9.90
2019-05-03T20:27:46.558Z,9.90
2019-05-03T20:30:16.134Z,9.90
2019-05-03T20:32:45.498Z,9.90
2019-05-03T20:35:19.203Z,9.90
2019-05-03T20:37:46.132Z,9.90
2019-05-03T20:40:15.529Z,9.90
2019-05-03T20:43:04.999Z,10.00
2019-05-03T20:45:36.190Z,9.90
2019-05-03T20:48:11.076Z,10.00
2019-05-03T20:50:40.429Z,10.00
2019-05-03T20:53:09.693Z,10.00
2019-05-03T20:55:39.050Z,10.10
2019-05-03T20:58:11.298Z,10.10
2019-05-03T21:00:39.601Z,10.10
2019-05-03T21:03:08.981Z,10.20
2019-05-03T21:05:38.345Z,10.20
2019-05-03T21:08:07.907Z,10.20
2019-05-03T21:10:37.301Z,10.20
2019-05-03T21:13:08.774Z,10.20
2019-05-03T21:15:39.678Z,10.20
2019-05-03T21:18:15.208Z,10.20
2019-05-03T21:20:46.281Z,10.30
2019-05-03T21:23:20.190Z,10.40
2019-05-03T21:26:12.069Z,10.40
2019-05-03T21:28:35.385Z,10.40
2019-05-03T21:31:05.658Z,10.50
2019-05-03T21:33:35.599Z,10.40
2019-05-03T21:36:04.985Z,10.40
2019-05-03T21:38:35.411Z,10.40
2019-05-03T21:41:05.399Z,10.40
2019-05-03T21:43:35.022Z,10.30
2019-05-03T21:46:07.515Z,10.10
2019-05-03T21:48:47.325Z,10.10
2019-05-03T21:51:16.991Z,10.10
2019-05-03T21:53:46.254Z,10.10
2019-05-03T21:56:15.538Z,10.10
2019-05-03T21:58:44.902Z,9.90
2019-05-03T22:01:15.495Z,9.80
2019-05-03T22:03:45.283Z,9.60
2019-05-03T22:06:16.874Z,9.60
2019-05-03T22:08:45.997Z,9.50
2019-05-03T22:11:15.266Z,9.40
2019-05-03T22:13:46.025Z,9.30
2019-05-03T22:16:17.352Z,9.30
2019-05-03T22:18:47.095Z,9.30
2019-05-03T22:21:30.100Z,9.30
2019-05-03T22:24:04.465Z,9.30
2019-05-03T22:26:50.841Z,9.30
2019-05-03T22:29:20.182Z,9.30
2019-05-03T22:31:49.435Z,9.40
2019-05-03T22:34:18.723Z,9.50
2019-05-03T22:36:48.088Z,9.50
2019-05-03T22:39:17.472Z,9.50
2019-05-03T22:41:46.729Z,9.50
2019-05-03T22:44:17.087Z,9.50
2019-05-03T22:46:46.629Z,9.50
2019-05-03T22:49:16.305Z,9.40
2019-05-03T22:51:45.581Z,9.20
2019-05-03T22:54:15.430Z,9.10
2019-05-03T22:56:45.897Z,9.00
2019-05-03T22:59:15.334Z,8.90
2019-05-03T23:01:45.772Z,8.80
2019-05-03T23:04:15.638Z,8.80
2019-05-03T23:06:47.102Z,8.80
2019-05-03T23:09:16.298Z,8.80
2019-05-03T23:11:45.685Z,8.80
2019-05-03T23:14:15.297Z,8.90
2019-05-03T23:16:45.056Z,8.90
2019-05-03T23:19:15.062Z,9.00
2019-05-03T23:21:48.989Z,9.00
2019-05-03T23:24:18.569Z,8.90
2019-05-03T23:26:48.129Z,8.70
2019-05-03T23:29:17.517Z,8.70
2019-05-03T23:31:46.882Z,8.70
2019-05-03T23:34:16.547Z,8.70
2019-05-03T23:36:46.363Z,8.70
2019-05-03T23:39:15.638Z,8.60
2019-05-03T23:41:44.898Z,8.40
2019-05-03T23:44:15.144Z,8.30
2019-05-03T23:46:49.858Z,8.10
2019-05-03T23:49:20.213Z,8.00
2019-05-03T23:51:55.070Z,7.80
2019-05-03T23:54:24.820Z,7.70
2019-05-03T23:56:54.755Z,7.60
2019-05-03T23:59:24.338Z,7.60
